Time;durP1;ratioP1;P1;durP2;ratioP2;P2;SDS_P1;SDS_P2;PMS_P1;PMS_P2;Temp;Humidity;BMP_temperature;BMP_pressure;BME280_temperature;BME280_humidity;BME280_pressure;Samples;Min_cycle;Max_cycle;Signal;HPM_P1;HPM_P2
2023/07/16 00:02:16;;;;;;;8.52;2.30;;;;;;;;;;5041067;28;20106;-73
2023/07/16 00:04:42;;;;;;;9.50;2.78;;;;;;;;;;5041644;28;20505;-72
2023/07/16 00:07:10;;;;;;;8.18;1.63;;;;;;;;;;5024797;28;20084;-71
2023/07/16 00:09:36;;;;;;;7.32;1.63;;;15.00;99.90;;;;;;5037952;28;20174;-72
2023/07/16 00:12:02;;;;;;;8.18;1.95;;;;;;;;;;5064541;28;20116;-71
2023/07/16 00:14:28;;;;;;;5.13;1.77;;;;;;;;;;5033968;28;20689;-72
2023/07/16 00:16:54;;;;;;;5.80;1.70;;;;;;;;;;5040357;28;20511;-72
2023/07/16 00:19:20;;;;;;;7.90;2.47;;;;;;;;;;5063718;28;20045;-74
2023/07/16 00:21:47;;;;;;;8.85;2.22;;;;;;;;;;5040356;28;20577;-73
2023/07/16 00:24:13;;;;;;;7.85;2.42;;;;;;;;;;5040541;28;20048;-72
2023/07/16 00:26:39;;;;;;;8.65;2.45;;;;;;;;;;5040762;28;20444;-73
2023/07/16 00:29:05;;;;;;;5.05;2.15;;;;;;;;;;5041024;28;20057;-73
2023/07/16 00:31:31;;;;;;;6.18;2.42;;;;;;;;;;5040519;28;20135;-71
2023/07/16 00:33:57;;;;;;;7.00;2.40;;;;;;;;;;5040648;28;20561;-72
2023/07/16 00:36:23;;;;;;;6.32;2.20;;;;;;;;;;5036420;28;20083;-73
2023/07/16 00:38:50;;;;;;;10.90;2.92;;;;;;;;;;5040707;28;20585;-73
2023/07/16 00:41:16;;;;;;;8.68;2.63;;;14.90;99.90;;;;;;5040549;28;20628;-72
2023/07/16 00:43:42;;;;;;;7.13;2.10;;;;;;;;;;5040686;28;20053;-71
2023/07/16 00:46:10;;;;;;;8.75;2.22;;;14.90;99.90;;;;;;5039781;28;20880;-72
2023/07/16 00:48:36;;;;;;;9.35;2.10;;;;;;;;;;5041057;28;20183;-71
2023/07/16 00:51:02;;;;;;;12.48;3.05;;;14.80;99.90;;;;;;5043069;28;20206;-72
2023/07/16 00:53:29;;;;;;;8.40;2.88;;;;;;;;;;5070131;28;20038;-71
2023/07/16 00:55:55;;;;;;;11.70;2.10;;;;;;;;;;5035669;28;20227;-72
2023/07/16 00:58:21;;;;;;;10.13;2.45;;;;;;;;;;5033222;28;20109;-71
2023/07/16 01:00:47;;;;;;;8.20;2.28;;;;;;;;;;5039532;28;20440;-71
2023/07/16 01:03:14;;;;;;;12.45;2.75;;;14.70;99.90;;;;;;5018815;28;20045;-71
2023/07/16 01:06:15;;;;;;;14.43;2.60;;;14.70;99.90;;;;;;5040067;28;20852;-71
2023/07/16 01:08:46;;;;;;;10.35;2.47;;;14.60;99.90;;;;;;5027753;28;20059;-71
2023/07/16 01:11:12;;;;;;;6.25;2.53;;;14.60;99.90;;;;;;5038014;28;20119;-72
2023/07/16 01:13:39;;;;;;;7.65;2.60;;;14.60;99.90;;;;;;5031433;28;20045;-71
2023/07/16 01:16:05;;;;;;;8.35;2.55;;;14.40;99.90;;;;;;5038795;28;20079;-71
2023/07/16 01:18:31;;;;;;;9.70;1.77;;;;;;;;;;5026180;28;20045;-71
2023/07/16 01:20:57;;;;;;;8.63;2.42;;;;;;;;;;5037486;28;20855;-70
2023/07/16 01:23:50;;;;;;;9.75;2.33;;;14.50;99.90;;;;;;5011179;28;20073;-71
2023/07/16 01:26:43;;;;;;;7.60;2.58;;;14.40;99.90;;;;;;5043711;28;20053;-74
2023/07/16 01:29:35;;;;;;;8.05;2.53;;;14.50;99.90;;;;;;5035610;28;20057;-71
2023/07/16 01:32:03;;;;;;;10.23;2.22;;;14.40;99.90;;;;;;5059609;28;20080;-73
2023/07/16 01:34:33;;;;;;;7.70;2.67;;;14.50;99.90;;;;;;5038242;28;20144;-78
2023/07/16 01:37:03;;;;;;;10.77;2.38;;;14.30;99.90;;;;;;5015425;28;20136;-72
2023/07/16 01:39:30;;;;;;;4.40;2.35;;;14.40;99.90;;;;;;5031652;28;20048;-71
2023/07/16 01:41:56;;;;;;;7.28;2.25;;;;;;;;;;5006666;28;20057;-71
2023/07/16 01:44:22;;;;;;;12.75;2.42;;;;;;;;;;5008831;28;20056;-71
2023/07/16 01:47:05;;;;;;;10.23;2.47;;;14.40;99.90;;;;;;5039451;28;20049;-74
2023/07/16 01:49:31;;;;;;;9.05;2.15;;;;;;;;;;5019698;28;20174;-70
2023/07/16 01:51:57;;;;;;;8.25;3.00;;;;;;;;;;5038266;28;20391;-71
2023/07/16 01:54:24;;;;;;;11.57;2.45;;;;;;;;;;5037133;28;20067;-74
2023/07/16 01:56:50;;;;;;;9.20;2.60;;;;;;;;;;5037326;28;20060;-72
2023/07/16 01:59:16;;;;;;;6.47;2.58;;;;;;;;;;5037284;28;20052;-72
2023/07/16 02:01:42;;;;;;;10.60;3.40;;;;;;;;;;5038008;28;20128;-70
2023/07/16 02:04:08;;;;;;;8.95;3.38;;;;;;;;;;5038940;28;20611;-71
2023/07/16 02:06:34;;;;;;;8.32;2.67;;;14.70;99.90;;;;;;5020977;28;20041;-71
2023/07/16 02:09:00;;;;;;;10.40;2.72;;;;;;;;;;5015271;28;20414;-74
2023/07/16 02:11:26;;;;;;;11.48;2.83;;;;;;;;;;5038641;28;20368;-79
2023/07/16 02:13:52;;;;;;;9.68;2.85;;;;;;;;;;5039303;28;20127;-75
2023/07/16 02:16:18;;;;;;;9.75;2.60;;;;;;;;;;5036052;28;20049;-73
2023/07/16 02:18:44;;;;;;;7.57;3.20;;;;;;;;;;5036563;28;20053;-77
2023/07/16 02:21:10;;;;;;;10.38;3.25;;;;;;;;;;5036702;28;20861;-78
2023/07/16 02:23:37;;;;;;;10.90;4.00;;;;;;;;;;5037341;28;20037;-75
2023/07/16 02:26:03;;;;;;;8.48;2.67;;;;;;;;;;5038472;28;20049;-77
2023/07/16 02:28:29;;;;;;;12.07;3.92;;;;;;;;;;5039030;28;20114;-75
2023/07/16 02:30:55;;;;;;;11.32;3.70;;;;;;;;;;5038990;28;20049;-74
2023/07/16 02:33:21;;;;;;;10.90;4.13;;;;;;;;;;5030722;28;20656;-76
2023/07/16 02:35:48;;;;;;;12.80;3.38;;;14.50;99.90;;;;;;5030173;28;20453;-73
2023/07/16 02:38:14;;;;;;;9.80;3.30;;;;;;;;;;5039094;28;20123;-74
2023/07/16 02:40:48;;;;;;;11.38;4.00;;;14.80;99.90;;;;;;5034740;28;20045;-77
2023/07/16 02:43:14;;;;;;;13.20;4.07;;;;;;;;;;5016438;28;20383;-74
2023/07/16 02:45:41;;;;;;;11.95;4.47;;;;;;;;;;5032727;28;20077;-73
2023/07/16 02:48:07;;;;;;;13.73;4.07;;;;;;;;;;5042856;28;20056;-77
2023/07/16 02:50:37;;;;;;;7.60;3.50;;;14.20;99.90;;;;;;5025957;28;20052;-74
2023/07/16 02:53:07;;;;;;;13.10;4.18;;;14.40;99.90;;;;;;5036965;28;20101;-73
2023/07/16 02:55:34;;;;;;;9.65;4.20;;;14.10;99.90;;;;;;5041465;28;20049;-75
2023/07/16 02:58:04;;;;;;;13.95;4.13;;;;;;;;;;5034297;28;20111;-73
2023/07/16 03:00:31;;;;;;;8.30;3.67;;;14.10;99.90;;;;;;5039228;28;20486;-76
2023/07/16 03:02:58;;;;;;;10.82;3.80;;;;;;;;;;5073779;28;20057;-76
2023/07/16 03:05:25;;;;;;;11.32;3.40;;;;;;;;;;5037260;28;20053;-74
2023/07/16 03:07:51;;;;;;;11.15;3.38;;;;;;;;;;5041767;28;20510;-77
2023/07/16 03:10:17;;;;;;;12.95;3.00;;;;;;;;;;5014504;28;20087;-72
2023/07/16 03:12:43;;;;;;;12.43;3.30;;;;;;;;;;5012247;28;20499;-75
2023/07/16 03:15:10;;;;;;;9.55;2.90;;;;;;;;;;5040380;28;20045;-76
2023/07/16 03:17:36;;;;;;;11.98;3.22;;;;;;;;;;5042472;28;20045;-74
2023/07/16 03:20:05;;;;;;;15.95;3.92;;;14.10;99.90;;;;;;5042670;28;20053;-75
2023/07/16 03:22:31;;;;;;;10.70;3.17;;;;;;;;;;5042390;28;20119;-76
2023/07/16 03:24:57;;;;;;;9.30;2.92;;;;;;;;;;5019658;28;20470;-77
2023/07/16 03:27:23;;;;;;;7.82;3.17;;;;;;;;;;5042653;28;20132;-76
2023/07/16 03:29:49;;;;;;;9.57;2.88;;;;;;;;;;5014122;28;20482;-73
2023/07/16 03:32:15;;;;;;;11.93;3.28;;;;;;;;;;5042774;28;20049;-74
2023/07/16 03:34:42;;;;;;;11.50;3.53;;;;;;;;;;5042895;28;20053;-72
2023/07/16 03:37:08;;;;;;;11.23;3.88;;;;;;;;;;5016084;28;20136;-75
2023/07/16 03:39:34;;;;;;;9.80;3.97;;;;;;;;;;5075931;28;20082;-75
2023/07/16 03:42:00;;;;;;;12.07;3.80;;;;;;;;;;5039560;28;20056;-75
2023/07/16 03:44:26;;;;;;;13.50;3.88;;;;;;;;;;5039727;28;20535;-74
2023/07/16 03:46:52;;;;;;;12.25;4.10;;;;;;;;;;5033250;28;20800;-74
2023/07/16 03:49:18;;;;;;;12.38;3.88;;;;;;;;;;5041741;28;20049;-76
2023/07/16 03:51:44;;;;;;;9.50;3.78;;;;;;;;;;5019573;28;20057;-71
2023/07/16 03:54:10;;;;;;;10.68;3.60;;;;;;;;;;5034345;28;20053;-70
2023/07/16 03:56:36;;;;;;;10.25;3.78;;;;;;;;;;5041311;28;20049;-73
2023/07/16 03:59:03;;;;;;;8.02;3.72;;;;;;;;;;5041070;28;20725;-71
2023/07/16 04:01:29;;;;;;;9.15;3.83;;;;;;;;;;5030850;28;20049;-75
2023/07/16 04:03:55;;;;;;;11.93;3.33;;;;;;;;;;5040812;28;21081;-74
2023/07/16 04:06:21;;;;;;;11.73;4.10;;;;;;;;;;5035405;28;20059;-72
2023/07/16 04:08:47;;;;;;;10.48;3.60;;;;;;;;;;5037579;28;20564;-74
2023/07/16 04:11:13;;;;;;;9.88;3.67;;;;;;;;;;5041320;28;20061;-75
2023/07/16 04:13:39;;;;;;;10.32;3.45;;;;;;;;;;5023548;28;20045;-82
2023/07/16 04:16:05;;;;;;;10.68;3.58;;;;;;;;;;5041253;28;20052;-75
2023/07/16 04:18:31;;;;;;;11.63;3.90;;;;;;;;;;5033984;28;20045;-76
2023/07/16 04:20:57;;;;;;;10.50;3.03;;;;;;;;;;5034607;28;20095;-74
2023/07/16 04:23:24;;;;;;;11.18;3.42;;;;;;;;;;5040476;28;20045;-73
2023/07/16 04:25:54;;;;;;;6.43;2.85;;;;;;;;;;5040254;28;20095;-79
2023/07/16 04:28:20;;;;;;;8.77;3.40;;;;;;;;;;5038842;28;20056;-75
2023/07/16 04:30:46;;;;;;;11.73;3.42;;;;;;;;;;5036209;28;20052;-77
2023/07/16 04:33:12;;;;;;;7.95;3.17;;;;;;;;;;5022374;28;20593;-77
2023/07/16 04:35:38;;;;;;;11.43;3.88;;;;;;;;;;5037094;28;20094;-76
2023/07/16 04:38:04;;;;;;;9.35;3.15;;;;;;;;;;5068362;28;20306;-78
2023/07/16 04:40:30;;;;;;;10.63;3.10;;;;;;;;;;5033000;28;20052;-74
2023/07/16 04:42:57;;;;;;;8.98;3.65;;;;;;;;;;5036767;28;20118;-78
2023/07/16 04:45:23;;;;;;;8.45;2.95;;;;;;;;;;5031363;28;20055;-73
2023/07/16 04:47:49;;;;;;;12.25;3.13;;;;;;;;;;5022893;28;20045;-74
2023/07/16 04:50:15;;;;;;;12.52;3.50;;;;;;;;;;5037033;28;20065;-76
2023/07/16 04:52:41;;;;;;;6.47;2.58;;;;;;;;;;5013037;28;20053;-76
2023/07/16 04:55:08;;;;;;;13.18;4.95;;;17.30;99.90;;;;;;5037805;28;20052;-74
2023/07/16 04:57:34;;;;;;;10.02;2.95;;;;;;;;;;5033650;28;20190;-79
2023/07/16 05:00:00;;;;;;;9.15;2.92;;;;;;;;;;5028342;28;20060;-81
2023/07/16 05:02:26;;;;;;;9.75;3.10;;;;;;;;;;5033817;28;20083;-77
2023/07/16 05:04:52;;;;;;;10.23;3.40;;;;;;;;;;5041079;28;20067;-76
2023/07/16 05:07:18;;;;;;;13.23;2.88;;;;;;;;;;5039227;28;20045;-77
2023/07/16 05:09:44;;;;;;;7.28;3.38;;;;;;;;;;5040452;28;20106;-75
2023/07/16 05:12:10;;;;;;;7.15;2.83;;;;;;;;;;5039567;28;20053;-80
2023/07/16 05:14:47;;;;;;;13.52;3.45;;;17.30;99.90;;;;;;5025452;28;20135;-78
2023/07/16 05:17:14;;;;;;;9.25;4.07;;;;;;;;;;5041247;28;20048;-76
2023/07/16 05:19:40;;;;;;;8.23;2.83;;;;;;;;;;5036837;28;20088;-77
2023/07/16 05:22:06;;;;;;;9.95;3.05;;;;;;;;;;5039883;28;20071;-75
2023/07/16 05:24:33;;;;;;;6.95;2.65;;;;;;;;;;5040625;28;20052;-77
2023/07/16 05:26:59;;;;;;;7.60;2.63;;;;;;;;;;5040571;28;20064;-76
2023/07/16 05:29:25;;;;;;;9.65;2.00;;;;;;;;;;5040328;28;20440;-75
2023/07/16 05:31:51;;;;;;;9.88;2.40;;;;;;;;;;5011604;28;20084;-80
2023/07/16 05:34:17;;;;;;;9.95;2.92;;;;;;;;;;5018299;28;20115;-82
2023/07/16 05:36:46;;;;;;;12.25;2.58;;;;;;;;;;5040067;28;20055;-79
2023/07/16 05:39:13;;;;;;;7.78;2.58;;;;;;;;;;5035361;28;20055;-77
2023/07/16 05:41:39;;;;;;;8.13;2.60;;;20.00;99.90;;;;;;5039357;28;20128;-74
2023/07/16 05:44:06;;;;;;;6.97;2.50;;;;;;;;;;5021170;28;20049;-79
2023/07/16 05:46:32;;;;;;;7.80;2.20;;;;;;;;;;5072051;28;20065;-79
2023/07/16 05:48:58;;;;;;;7.57;2.42;;;;;;;;;;5015261;28;20053;-81
2023/07/16 05:51:24;;;;;;;8.60;2.20;;;;;;;;;;5015705;28;20049;-79
2023/07/16 05:53:50;;;;;;;6.82;2.42;;;;;;;;;;5039060;28;20184;-77
2023/07/16 05:56:16;;;;;;;5.90;1.92;;;;;;;;;;5017645;28;20060;-75
2023/07/16 05:58:42;;;;;;;6.15;1.77;;;;;;;;;;5031571;28;20044;-77
2023/07/16 06:01:09;;;;;;;10.75;2.05;;;;;;;;;;5039199;28;20584;-78
2023/07/16 06:03:35;;;;;;;8.93;2.75;;;;;;;;;;5038758;28;20048;-79
2023/07/16 06:06:01;;;;;;;9.85;3.55;;;;;;;;;;5037567;28;20052;-80
2023/07/16 06:08:27;;;;;;;5.03;2.10;;;;;;;;;;5037089;28;20049;-78
2023/07/16 06:10:53;;;;;;;4.88;1.58;;;;;;;;;;5036289;28;20787;-78
2023/07/16 06:13:19;;;;;;;9.57;1.88;;;;;;;;;;5026662;28;20049;-76
2023/07/16 06:15:47;;;;;;;6.28;1.98;;;29.70;68.50;;;;;;5038342;28;20044;-76
2023/07/16 06:18:13;;;;;;;6.90;2.47;;;;;;;;;;5038174;28;20106;-81
2023/07/16 06:20:39;;;;;;;6.80;2.30;;;;;;;;;;5021983;28;20048;-80
2023/07/16 06:23:05;;;;;;;7.30;2.40;;;;;;;;;;5019966;28;20739;-78
2023/07/16 06:25:31;;;;;;;6.90;2.00;;;;;;;;;;5034653;28;20045;-77
2023/07/16 06:27:58;;;;;;;4.43;1.92;;;;;;;;;;5026688;28;20072;-80
2023/07/16 06:30:24;;;;;;;9.60;2.40;;;;;;;;;;5061604;28;20033;-79
2023/07/16 06:32:50;;;;;;;9.05;2.22;;;;;;;;;;5037141;28;20210;-76
2023/07/16 06:35:16;;;;;;;5.78;2.17;;;32.60;61.10;;;;;;5035074;28;20059;-80
2023/07/16 06:37:41;;;;;;;5.43;2.28;;;33.30;59.40;;;;;;5033116;28;20049;-74
2023/07/16 06:40:08;;;;;;;5.57;2.28;;;;;;;;;;5021424;28;20057;-87
2023/07/16 06:42:34;;;;;;;9.35;2.67;;;32.90;58.30;;;;;;5036601;28;20102;-81
2023/07/16 06:45:00;;;;;;;5.60;1.85;;;;;;;;;;5037989;28;20065;-79
2023/07/16 06:47:26;;;;;;;5.82;2.42;;;;;;;;;;5034776;28;20053;-77
2023/07/16 06:49:52;;;;;;;8.05;2.20;;;;;;;;;;5019638;28;20797;-79
2023/07/16 06:52:20;;;;;;;7.05;2.42;;;32.80;56.10;;;;;;5038011;28;20056;-81
2023/07/16 06:54:46;;;;;;;6.32;2.35;;;;;;;;;;5031282;28;20114;-81
2023/07/16 06:57:12;;;;;;;7.15;2.22;;;30.80;64.00;;;;;;5029950;28;20056;-84
2023/07/16 06:59:38;;;;;;;6.32;2.50;;;;;;;;;;5034815;28;20064;-78
2023/07/16 07:02:04;;;;;;;7.47;2.70;;;28.40;59.20;;;;;;5037866;28;20057;-84
2023/07/16 07:04:30;;;;;;;7.30;2.30;;;28.10;64.40;;;;;;5039217;28;20060;-74
2023/07/16 07:06:56;;;;;;;5.85;2.33;;;;;;;;;;5039197;28;20048;-77
2023/07/16 07:09:22;;;;;;;5.88;2.60;;;28.60;60.40;;;;;;5037974;28;20513;-84
2023/07/16 07:11:48;;;;;;;7.22;3.05;;;;;;;;;;5038264;28;20053;-83
2023/07/16 07:14:14;;;;;;;5.93;2.22;;;29.90;63.00;;;;;;5015251;28;20166;-78
2023/07/16 07:16:40;;;;;;;7.70;2.70;;;;;;;;;;5069804;28;20095;-85
2023/07/16 07:19:06;;;;;;;7.30;2.45;;;29.30;58.80;;;;;;5033936;28;20037;-84
2023/07/16 07:21:31;;;;;;;6.72;2.22;;;28.70;59.70;;;;;;5033368;28;20127;-79
2023/07/16 07:23:57;;;;;;;6.28;2.80;;;;;;;;;;5038820;28;20060;-82
2023/07/16 07:26:24;;;;;;;7.60;2.30;;;;;;;;;;5037932;28;20048;-75
2023/07/16 07:28:50;;;;;;;6.18;2.60;;;;;;;;;;5020466;28;20052;-75
2023/07/16 07:31:21;;;;;;;5.00;2.20;;;31.60;55.10;;;;;;5038497;28;20079;-84
2023/07/16 07:33:47;;;;;;;5.70;2.00;;;;;;;;;;5039181;28;20573;-85
2023/07/16 07:36:13;;;;;;;6.05;2.60;;;;;;;;;;5041228;28;20044;-74
2023/07/16 07:38:39;;;;;;;4.60;2.13;;;;;;;;;;5023253;28;20107;-82
2023/07/16 07:41:06;;;;;;;4.68;2.00;;;;;;;;;;5035456;28;20048;-80
2023/07/16 07:43:32;;;;;;;4.60;2.38;;;;;;;;;;5031785;28;20053;-81
2023/07/16 07:45:58;;;;;;;8.98;2.28;;;;;;;;;;5041880;28;20056;-82
2023/07/16 07:48:24;;;;;;;8.55;2.10;;;;;;;;;;5036200;28;20540;-83
2023/07/16 07:50:50;;;;;;;7.30;2.33;;;;;;;;;;5035881;28;20118;-77
2023/07/16 07:53:18;;;;;;;6.57;2.45;;;31.80;53.40;;;;;;5034433;28;20068;-81
2023/07/16 07:55:45;;;;;;;6.85;2.33;;;;;;;;;;5035333;28;20193;-78
2023/07/16 07:58:11;;;;;;;7.82;2.60;;;30.10;55.70;;;;;;5035596;28;20057;-80
2023/07/16 08:00:37;;;;;;;5.00;2.15;;;29.70;59.20;;;;;;5021537;28;20053;-75
2023/07/16 08:03:03;;;;;;;6.47;2.58;;;;;;;;;;5035158;28;20049;-77
2023/07/16 08:05:29;;;;;;;7.68;2.88;;;;;;;;;;5042611;28;20056;-76
2023/07/16 08:07:55;;;;;;;6.18;2.33;;;;;;;;;;5042286;28;20044;-82
2023/07/16 08:10:22;;;;;;;7.05;2.47;;;28.30;56.70;;;;;;5018066;28;20055;-80
2023/07/16 08:12:48;;;;;;;6.15;2.22;;;28.40;65.60;;;;;;5038101;28;20053;-82
2023/07/16 08:15:14;;;;;;;5.50;2.33;;;28.40;57.50;;;;;;5038593;28;20049;-76
2023/07/16 08:17:45;;;;;;;7.45;2.30;;;28.50;57.50;;;;;;5065643;28;20049;-77
2023/07/16 08:20:11;;;;;;;11.13;3.10;;;28.10;57.60;;;;;;5035987;28;20106;-77
2023/07/16 08:22:38;;;;;;;6.88;2.30;;;27.20;57.90;;;;;;5040596;28;20051;-79
2023/07/16 08:25:05;;;;;;;5.85;2.45;;;26.50;63.90;;;;;;5014030;28;20784;-75
2023/07/16 08:27:31;;;;;;;5.85;2.20;;;;;;;;;;5066933;28;20049;-79
2023/07/16 08:29:57;;;;;;;7.38;3.03;;;25.80;61.40;;;;;;5038336;28;20084;-84
2023/07/16 08:32:23;;;;;;;6.97;2.63;;;27.60;62.90;;;;;;5038722;28;20179;-80
2023/07/16 08:34:49;;;;;;;6.97;3.00;;;;;;;;;;5039009;28;20056;-80
2023/07/16 08:37:16;;;;;;;6.70;2.42;;;;;;;;;;5032968;28;20045;-79
2023/07/16 08:39:42;;;;;;;5.20;2.10;;;;;;;;;;5034778;28;20516;-80
2023/07/16 08:42:12;;;;;;;8.75;2.80;;;27.30;59.90;;;;;;5039241;28;20661;-79
2023/07/16 08:44:39;;;;;;;8.70;2.65;;;;;;;;;;5039097;28;20128;-80
2023/07/16 08:47:06;;;;;;;4.78;2.10;;;28.50;58.00;;;;;;5019452;28;20045;-79
2023/07/16 08:49:34;;;;;;;6.53;2.63;;;29.10;57.70;;;;;;5037677;28;20573;-78
2023/07/16 08:52:01;;;;;;;7.47;2.47;;;29.70;56.90;;;;;;5032591;28;20079;-72
2023/07/16 08:54:28;;;;;;;7.32;2.35;;;;;;;;;;5065694;28;20119;-75
2023/07/16 08:56:54;;;;;;;6.30;2.75;;;28.80;57.40;;;;;;5016708;28;20059;-76
2023/07/16 08:59:21;;;;;;;5.63;2.60;;;26.40;57.50;;;;;;5008634;28;20095;-79
2023/07/16 09:01:48;;;;;;;5.97;2.03;;;27.10;59.10;;;;;;5038907;28;20478;-75
2023/07/16 09:04:14;;;;;;;6.13;2.70;;;;;;;;;;5022160;28;20851;-77
2023/07/16 09:06:40;;;;;;;7.70;2.75;;;;;;;;;;5013635;28;20060;-79
2023/07/16 09:09:06;;;;;;;6.70;2.15;;;;;;;;;;5036573;28;20057;-81
2023/07/16 09:11:33;;;;;;;9.43;2.33;;;27.30;60.90;;;;;;5037105;28;20052;-81
2023/07/16 09:14:02;;;;;;;4.80;2.00;;;27.20;60.00;;;;;;5037023;28;20124;-81
2023/07/16 09:16:33;;;;;;;7.93;2.65;;;26.50;60.10;;;;;;5030907;28;20124;-81
2023/07/16 09:19:07;;;;;;;6.45;2.83;;;26.30;61.10;;;;;;5036367;28;20102;-82
2023/07/16 09:21:34;;;;;;;7.55;3.30;;;;;;;;;;5037450;28;20561;-78
2023/07/16 09:24:01;;;;;;;9.20;2.78;;;;;;;;;;5039085;28;20041;-85
2023/07/16 09:26:27;;;;;;;5.63;2.78;;;;;;;;;;5040277;28;20426;-83
2023/07/16 09:28:53;;;;;;;3.95;2.15;;;;;;;;;;5039841;28;20151;-76
2023/07/16 09:31:19;;;;;;;6.47;2.65;;;;;;;;;;5040571;28;20056;-79
2023/07/16 09:33:47;;;;;;;9.32;2.95;;;26.60;60.10;;;;;;5039871;28;20048;-79
2023/07/16 09:36:13;;;;;;;6.50;2.80;;;;;;;;;;5040665;28;20140;-79
2023/07/16 09:38:39;;;;;;;5.28;2.35;;;;;;;;;;5039387;28;20064;-78
2023/07/16 09:41:06;;;;;;;6.90;3.67;;;26.10;63.40;;;;;;5038003;28;20499;-84
2023/07/16 09:43:34;;;;;;;6.88;3.15;;;25.60;61.20;;;;;;5065771;28;20057;-80
2023/07/16 09:46:01;;;;;;;8.05;2.50;;;;;;;;;;5010848;28;20049;-80
2023/07/16 09:48:27;;;;;;;7.70;2.42;;;;;;;;;;5004849;28;20053;-79
2023/07/16 09:50:53;;;;;;;5.03;2.25;;;25.40;62.00;;;;;;5038276;28;20060;-78
2023/07/16 09:53:23;;;;;;;5.75;2.78;;;24.90;62.50;;;;;;5018424;28;20048;-81
2023/07/16 09:55:50;;;;;;;7.28;2.60;;;;;;;;;;5036932;28;20048;-79
2023/07/16 09:58:19;;;;;;;9.88;3.85;;;24.50;65.00;;;;;;5038870;28;20071;-76
2023/07/16 10:00:47;;;;;;;9.02;2.95;;;24.20;65.00;;;;;;5010494;28;20446;-81
2023/07/16 10:03:16;;;;;;;8.27;2.83;;;23.80;65.80;;;;;;4943565;28;20408;-83
2023/07/16 10:05:42;;;;;;;6.95;2.95;;;;;;;;;;4957149;28;20058;-82
2023/07/16 10:08:17;;;;;;;10.25;3.00;;;24.50;66.90;;;;;;4946912;28;20058;-82
2023/07/16 10:11:04;;;;;;;6.82;2.22;;;26.90;67.30;;;;;;4949698;28;20570;-79
2023/07/16 10:13:30;;;;;;;7.30;2.92;;;;;;;;;;4977284;28;20061;-79
2023/07/16 10:15:58;;;;;;;7.90;2.95;;;26.80;62.60;;;;;;4964739;28;20533;-75
2023/07/16 10:18:31;;;;;;;5.93;2.75;;;26.50;62.20;;;;;;4960967;28;20065;-75
2023/07/16 10:21:09;;;;;;;6.50;2.63;;;26.90;63.00;;;;;;4967259;28;20089;-84
2023/07/16 10:23:41;;;;;;;7.53;3.28;;;27.30;63.00;;;;;;4948747;28;20844;-83
2023/07/16 10:26:09;;;;;;;7.28;2.95;;;27.50;62.60;;;;;;4956038;28;20119;-82
2023/07/16 10:28:36;;;;;;;7.60;2.60;;;27.40;62.60;;;;;;4958843;28;20065;-80
2023/07/16 10:31:02;;;;;;;6.38;3.08;;;;;;;;;;4968686;28;20069;-81
2023/07/16 10:33:28;;;;;;;9.05;2.92;;;26.40;63.10;;;;;;4975022;28;20077;-82
2023/07/16 10:35:58;;;;;;;8.02;2.28;;;26.20;62.10;;;;;;4979823;28;20077;-80
2023/07/16 10:38:24;;;;;;;7.25;2.63;;;;;;;;;;4978570;28;20053;-82
2023/07/16 10:40:50;;;;;;;8.50;2.95;;;;;;;;;;4980318;28;20050;-81
2023/07/16 10:43:17;;;;;;;5.18;2.60;;;;;;;;;;4980696;28;20077;-76
2023/07/16 10:45:45;;;;;;;8.98;2.80;;;;;;;;;;4980860;28;20121;-76
2023/07/16 10:48:11;;;;;;;6.53;2.80;;;;;;;;;;4962096;28;20072;-81
2023/07/16 10:50:38;;;;;;;6.45;2.75;;;26.30;65.40;;;;;;4980229;28;20046;-80
2023/07/16 10:53:04;;;;;;;8.77;2.97;;;26.30;69.30;;;;;;4980087;28;20108;-77
2023/07/16 10:55:32;;;;;;;6.28;3.03;;;25.50;62.60;;;;;;4963827;28;20054;-81
2023/07/16 10:57:58;;;;;;;6.38;3.10;;;25.00;63.90;;;;;;4982709;28;20138;-79
2023/07/16 11:00:24;;;;;;;5.63;2.88;;;25.00;74.30;;;;;;4983348;28;20105;-78
2023/07/16 11:02:51;;;;;;;7.97;3.58;;;24.20;65.30;;;;;;4983485;28;20073;-80
2023/07/16 11:05:18;;;;;;;6.57;2.80;;;24.20;66.20;;;;;;4984410;28;20060;-80
2023/07/16 11:07:47;;;;;;;7.22;3.38;;;24.00;66.90;;;;;;5000456;28;20167;-82
2023/07/16 11:10:16;;;;;;;6.40;2.50;;;24.30;67.00;;;;;;4962125;28;20144;-81
2023/07/16 11:12:42;;;;;;;12.80;4.18;;;;;;;;;;4992622;28;20100;-79
2023/07/16 11:15:09;;;;;;;6.63;3.25;;;;;;;;;;4986206;28;20610;-78
2023/07/16 11:17:38;;;;;;;8.50;2.97;;;24.90;66.70;;;;;;4999102;28;20065;-79
2023/07/16 11:20:04;;;;;;;6.70;2.75;;;;;;;;;;4981338;28;20046;-78
2023/07/16 11:22:31;;;;;;;4.45;2.75;;;;;;;;;;4997410;28;20077;-82
2023/07/16 11:24:57;;;;;;;5.93;2.47;;;;;;;;;;4985168;28;20058;-77
2023/07/16 11:27:29;;;;;;;6.10;2.75;;;25.00;65.70;;;;;;4997779;28;20093;-76
2023/07/16 11:29:57;;;;;;;5.40;2.40;;;24.70;65.60;;;;;;4982245;28;20057;-74
2023/07/16 11:32:27;;;;;;;6.38;2.42;;;24.50;66.00;;;;;;4984073;28;20058;-82
2023/07/16 11:34:57;;;;;;;6.85;3.05;;;24.20;66.80;;;;;;4987243;28;20283;-77
2023/07/16 11:37:25;;;;;;;4.18;2.10;;;24.20;67.00;;;;;;4999142;28;20090;-79
2023/07/16 11:39:51;;;;;;;7.30;2.72;;;;;;;;;;4983933;28;20401;-83
2023/07/16 11:42:27;;;;;;;6.65;2.88;;;24.00;66.80;;;;;;4985374;28;20081;-83
2023/07/16 11:44:54;;;;;;;5.93;2.42;;;;;;;;;;4976296;28;20046;-81
2023/07/16 11:47:20;;;;;;;6.47;2.50;;;23.30;67.70;;;;;;4988589;28;20058;-79
2023/07/16 11:49:46;;;;;;;7.38;3.17;;;;;;;;;;4982042;28;20068;-82
2023/07/16 11:52:12;;;;;;;7.00;2.38;;;;;;;;;;4987320;28;20133;-80
2023/07/16 11:54:38;;;;;;;7.50;2.65;;;;;;;;;;4982906;28;21040;-80
2023/07/16 11:57:05;;;;;;;8.55;3.10;;;;;;;;;;4988542;28;20054;-76
2023/07/16 11:59:31;;;;;;;4.78;2.70;;;;;;;;;;4998127;28;20080;-82
2023/07/16 12:01:57;;;;;;;5.90;2.88;;;;;;;;;;4982005;28;20491;-77
2023/07/16 12:04:23;;;;;;;6.47;2.35;;;;;;;;;;4997804;28;20054;-82
2023/07/16 12:06:49;;;;;;;9.13;3.65;;;;;;;;;;4988748;28;20065;-77
2023/07/16 12:09:15;;;;;;;6.13;2.83;;;;;;;;;;4995667;28;20058;-81
2023/07/16 12:11:41;;;;;;;4.65;3.00;;;;;;;;;;4987835;28;20062;-78
2023/07/16 12:14:08;;;;;;;8.07;3.25;;;;;;;;;;4988957;28;20054;-79
2023/07/16 12:16:34;;;;;;;7.60;3.30;;;;;;;;;;4988345;28;20129;-78
2023/07/16 12:19:00;;;;;;;6.82;3.10;;;;;;;;;;4999028;28;20054;-81
2023/07/16 12:21:26;;;;;;;5.00;3.13;;;;;;;;;;4988425;28;20547;-79
2023/07/16 12:23:53;;;;;;;6.97;2.95;;;;;;;;;;4998707;28;20042;-81
2023/07/16 12:26:19;;;;;;;6.32;2.80;;;;;;;;;;4984925;28;20054;-82
2023/07/16 12:28:45;;;;;;;6.28;2.90;;;;;;;;;;4998442;28;20090;-77
2023/07/16 12:31:11;;;;;;;7.35;3.60;;;;;;;;;;4982889;28;20163;-78
2023/07/16 12:33:37;;;;;;;8.27;2.90;;;;;;;;;;4988305;28;20514;-82
2023/07/16 12:36:03;;;;;;;5.60;2.85;;;;;;;;;;4993596;28;20050;-79
2023/07/16 12:38:29;;;;;;;5.72;2.63;;;;;;;;;;4979573;28;20108;-82
2023/07/16 12:40:55;;;;;;;5.47;3.10;;;;;;;;;;4982325;28;20124;-80
2023/07/16 12:43:22;;;;;;;5.90;2.63;;;;;;;;;;4993343;28;20089;-77
2023/07/16 12:45:48;;;;;;;7.93;3.40;;;;;;;;;;4976690;28;20125;-80
2023/07/16 12:48:14;;;;;;;11.02;3.20;;;;;;;;;;4979180;28;20050;-75
2023/07/16 12:50:40;;;;;;;6.55;3.03;;;;;;;;;;4966135;28;20541;-75
2023/07/16 12:53:06;;;;;;;7.15;2.97;;;;;;;;;;4979354;28;20054;-82
2023/07/16 12:55:33;;;;;;;5.45;2.78;;;;;;;;;;4988027;28;20047;-76
2023/07/16 12:58:00;;;;;;;6.38;2.97;;;;;;;;;;4988938;28;20764;-78
2023/07/16 13:00:26;;;;;;;6.28;2.97;;;;;;;;;;4989707;28;20054;-83
2023/07/16 13:02:52;;;;;;;7.38;2.97;;;;;;;;;;4994518;28;20058;-80
2023/07/16 13:05:18;;;;;;;7.50;2.95;;;;;;;;;;4966597;28;20054;-82
2023/07/16 13:07:44;;;;;;;10.25;3.88;;;;;;;;;;4998295;28;20050;-79
2023/07/16 13:10:10;;;;;;;7.22;3.30;;;;;;;;;;4982783;28;20089;-82
2023/07/16 13:12:36;;;;;;;6.43;2.72;;;;;;;;;;4982597;28;20780;-79
2023/07/16 13:15:02;;;;;;;6.38;2.97;;;;;;;;;;4988123;28;20054;-80
2023/07/16 13:17:29;;;;;;;6.15;2.55;;;;;;;;;;4978585;28;20166;-78
2023/07/16 13:19:55;;;;;;;5.78;2.90;;;;;;;;;;4986276;28;20046;-82
2023/07/16 13:22:21;;;;;;;8.27;2.85;;;;;;;;;;4971756;28;20794;-81
2023/07/16 13:24:47;;;;;;;10.40;3.17;;;;;;;;;;4981561;28;20050;-81
2023/07/16 13:27:23;;;;;;;11.43;3.35;;;22.40;73.40;;;;;;4964297;28;20062;-76
2023/07/16 13:29:49;;;;;;;6.18;2.72;;;;;;;;;;4976467;28;20057;-76
2023/07/16 13:32:16;;;;;;;8.23;2.60;;;;;;;;;;4997791;28;20104;-80
2023/07/16 13:34:42;;;;;;;5.47;2.63;;;;;;;;;;4973226;28;20116;-78
2023/07/16 13:37:08;;;;;;;5.95;3.05;;;;;;;;;;4996577;28;20054;-77
2023/07/16 13:39:34;;;;;;;7.43;2.72;;;;;;;;;;4975118;28;20054;-78
2023/07/16 13:42:00;;;;;;;7.68;2.83;;;;;;;;;;4981385;28;20677;-78
2023/07/16 13:44:26;;;;;;;6.43;2.70;;;;;;;;;;4984628;28;20556;-80
2023/07/16 13:46:52;;;;;;;6.47;2.58;;;;;;;;;;4996027;28;20672;-82
2023/07/16 13:49:18;;;;;;;8.77;2.60;;;;;;;;;;4980252;28;20082;-76
2023/07/16 13:51:45;;;;;;;7.78;2.45;;;;;;;;;;4979680;28;20634;-83
2023/07/16 13:54:12;;;;;;;6.20;2.40;;;21.70;75.90;;;;;;4979325;28;20070;-80
2023/07/16 13:56:38;;;;;;;5.85;2.60;;;;;;;;;;4980502;28;20058;-81
2023/07/16 13:59:04;;;;;;;5.32;2.67;;;;;;;;;;4983573;28;20506;-80
2023/07/16 14:01:30;;;;;;;5.15;2.05;;;;;;;;;;4980172;28;20129;-80